createdAt,value
2023-04-02T00:00:29.422Z,6.98
2023-04-02T00:04:11.641Z,6.86
2023-04-02T00:07:26.043Z,6.97
2023-04-02T00:10:32.110Z,6.90
2023-04-02T00:13:36.484Z,6.92
2023-04-02T00:16:38.305Z,6.99
2023-04-02T00:19:45.758Z,7.01
2023-04-02T00:22:48.921Z,7.04
2023-04-02T00:25:52.361Z,7.21
2023-04-02T00:28:54.644Z,7.15
2023-04-02T00:31:59.833Z,7.24
2023-04-02T00:35:02.244Z,7.33
2023-04-02T00:38:04.183Z,7.49
2023-04-02T00:41:07.948Z,7.60
2023-04-02T00:44:11.581Z,7.83
2023-04-02T00:47:18.791Z,7.91
2023-04-02T00:50:27.329Z,7.93
2023-04-02T00:53:30.732Z,8.08
2023-04-02T00:56:39.241Z,8.04
2023-04-02T00:59:51.088Z,8.01
2023-04-02T01:03:30.503Z,7.96
2023-04-02T01:06:35.892Z,7.89
2023-04-02T01:09:54.198Z,7.76
2023-04-02T01:13:07.490Z,7.71
2023-04-02T01:16:17.673Z,7.71
2023-04-02T01:19:48.798Z,7.67
2023-04-02T01:22:56.862Z,7.67
2023-04-02T01:26:04.697Z,7.63
2023-04-02T01:29:12.049Z,7.62
2023-04-02T01:32:16.955Z,7.64
2023-04-02T01:35:18.953Z,7.62
2023-04-02T01:38:27.279Z,7.65
2023-04-02T01:41:34.312Z,7.60
2023-04-02T01:44:41.646Z,7.72
2023-04-02T01:47:44.308Z,7.79
2023-04-02T01:50:49.154Z,7.79
2023-04-02T01:53:50.878Z,7.82
2023-04-02T01:56:52.800Z,7.93
2023-04-02T01:59:55.958Z,7.87
2023-04-02T02:03:00.180Z,7.95
2023-04-02T02:06:03.007Z,8.01
2023-04-02T02:09:06.963Z,8.10
2023-04-02T02:12:12.484Z,8.16
2023-04-02T02:15:18.096Z,8.14
2023-04-02T02:18:21.925Z,8.24
2023-04-02T02:21:27.974Z,8.29
2023-04-02T02:24:32.812Z,8.31
2023-04-02T02:27:45.548Z,8.34
2023-04-02T02:30:53.335Z,8.34
2023-04-02T02:34:02.294Z,8.33
2023-04-02T02:37:06.809Z,8.32
2023-04-02T02:40:13.001Z,8.31
2023-04-02T02:43:16.686Z,8.36
2023-04-02T02:46:23.809Z,8.35
2023-04-02T02:49:28.646Z,8.40
2023-04-02T02:52:33.025Z,8.33
2023-04-02T02:55:37.462Z,8.32
2023-04-02T02:58:40.092Z,8.43
2023-04-02T03:01:44.394Z,8.48
2023-04-02T03:04:51.855Z,8.49
2023-04-02T03:07:56.362Z,8.51
2023-04-02T03:11:04.692Z,8.57
2023-04-02T03:14:18.242Z,8.57
2023-04-02T03:17:27.966Z,8.53
2023-04-02T03:20:37.870Z,8.55
2023-04-02T03:23:41.570Z,8.52
2023-04-02T03:26:50.171Z,8.53
2023-04-02T03:30:03.278Z,8.45
2023-04-02T03:33:11.458Z,8.48
2023-04-02T03:36:19.915Z,8.47
2023-04-02T03:39:27.069Z,8.51
2023-04-02T03:42:37.146Z,8.46
2023-04-02T03:45:42.046Z,8.45
2023-04-02T03:48:49.262Z,8.44
2023-04-02T03:51:57.467Z,8.51
2023-04-02T03:55:01.664Z,8.50
2023-04-02T03:58:09.959Z,8.44
2023-04-02T04:01:20.293Z,8.56
2023-04-02T04:04:26.514Z,8.46
2023-04-02T04:07:32.426Z,8.54
2023-04-02T04:10:35.680Z,8.48
2023-04-02T04:13:44.267Z,8.51
2023-04-02T04:16:51.302Z,8.52
2023-04-02T04:19:59.373Z,8.37
2023-04-02T04:23:16.287Z,8.35
2023-04-02T04:26:23.082Z,8.32
2023-04-02T04:29:35.170Z,8.36
2023-04-02T04:32:39.735Z,8.31
2023-04-02T04:35:49.322Z,8.25
2023-04-02T04:38:52.182Z,8.26
2023-04-02T04:41:56.598Z,8.23
2023-04-02T04:45:03.276Z,8.17
2023-04-02T04:48:10.242Z,8.12
2023-04-02T04:51:19.905Z,8.13
2023-04-02T04:54:26.659Z,8.14
2023-04-02T04:57:33.314Z,8.11
2023-04-02T05:00:44.079Z,8.06
2023-04-02T05:03:50.970Z,8.02
2023-04-02T05:06:57.288Z,8.15
2023-04-02T05:10:04.348Z,8.13
2023-04-02T05:13:14.069Z,8.23
2023-04-02T05:16:22.841Z,8.25
2023-04-02T05:19:31.375Z,8.32
2023-04-02T05:22:41.968Z,8.43
2023-04-02T05:25:55.277Z,8.52
2023-04-02T05:29:01.732Z,8.55
2023-04-02T05:32:09.219Z,8.68
2023-04-02T05:35:16.662Z,8.81
2023-04-02T05:38:22.999Z,8.94
2023-04-02T05:41:27.055Z,9.05
2023-04-02T05:44:31.023Z,9.08
2023-04-02T05:47:34.243Z,9.29
2023-04-02T05:50:41.008Z,9.32
2023-04-02T05:53:50.963Z,9.34
2023-04-02T05:56:55.811Z,9.46
2023-04-02T06:00:00.552Z,9.47
2023-04-02T06:03:06.201Z,9.43
2023-04-02T06:06:17.495Z,9.51
2023-04-02T06:09:29.378Z,9.52
2023-04-02T06:12:37.760Z,9.72
2023-04-02T06:15:39.599Z,9.84
2023-04-02T06:18:43.059Z,10.00
2023-04-02T06:21:45.398Z,10.14
2023-04-02T06:24:56.091Z,10.27
2023-04-02T06:28:01.452Z,10.41
2023-04-02T06:31:07.900Z,10.50
2023-04-02T06:34:15.888Z,10.59
2023-04-02T06:37:24.584Z,10.63
2023-04-02T06:40:40.520Z,10.71
2023-04-02T06:43:44.417Z,11.03
2023-04-02T06:46:51.796Z,11.20
2023-04-02T06:50:01.305Z,11.11
2023-04-02T06:53:07.020Z,11.16
2023-04-02T06:56:21.977Z,11.18
2023-04-02T06:59:24.216Z,11.31
2023-04-02T07:02:31.297Z,11.38
2023-04-02T07:05:33.326Z,11.55
2023-04-02T07:08:35.286Z,11.60
2023-04-02T07:11:38.841Z,11.76
2023-04-02T07:14:40.661Z,12.00
2023-04-02T07:17:42.735Z,12.07
2023-04-02T07:20:44.619Z,12.10
2023-04-02T07:23:46.429Z,12.25
2023-04-02T07:26:49.788Z,12.33
2023-04-02T07:29:51.756Z,12.64
2023-04-02T07:32:53.530Z,12.68
2023-04-02T07:35:57.040Z,12.89
2023-04-02T07:38:59.101Z,12.90
2023-04-02T07:42:02.671Z,12.77
2023-04-02T07:45:06.111Z,13.04
2023-04-02T07:48:10.004Z,13.18
2023-04-02T07:51:17.182Z,13.19
2023-04-02T07:54:18.890Z,13.24
2023-04-02T07:57:22.096Z,13.21
2023-04-02T08:00:24.900Z,13.56
2023-04-02T08:03:26.934Z,13.52
2023-04-02T08:06:29.022Z,13.49
2023-04-02T08:09:30.709Z,13.62
2023-04-02T08:12:33.763Z,13.73
2023-04-02T08:15:35.796Z,13.90
2023-04-02T08:18:37.832Z,14.20
2023-04-02T08:21:39.541Z,14.22
2023-04-02T08:24:41.236Z,14.26
2023-04-02T08:27:46.842Z,14.23
2023-04-02T08:30:49.015Z,14.46
2023-04-02T08:33:50.781Z,14.49
2023-04-02T08:36:56.465Z,14.71
2023-04-02T08:39:58.154Z,14.75
2023-04-02T08:43:24.125Z,15.00
2023-04-02T08:46:30.640Z,15.07
2023-04-02T08:49:37.689Z,15.21
2023-04-02T08:52:39.714Z,15.19
2023-04-02T08:55:45.422Z,15.31
2023-04-02T08:58:50.910Z,15.36
2023-04-02T09:01:58.089Z,15.36
2023-04-02T09:05:04.393Z,15.53
2023-04-02T09:08:17.764Z,15.64
2023-04-02T09:11:24.439Z,15.70
2023-04-02T09:14:39.157Z,15.34
2023-04-02T09:17:53.687Z,15.16
2023-04-02T09:20:56.358Z,15.37
2023-04-02T09:23:58.108Z,15.60
2023-04-02T09:26:59.889Z,15.45
2023-04-02T09:30:10.850Z,15.28
2023-04-02T09:33:12.889Z,15.34
2023-04-02T09:36:33.992Z,15.28
2023-04-02T09:39:35.784Z,15.38
2023-04-02T09:42:37.691Z,15.26
2023-04-02T09:45:41.508Z,15.35
2023-04-02T09:48:45.488Z,15.48
2023-04-02T09:52:07.506Z,15.85
2023-04-02T09:55:22.538Z,15.83
2023-04-02T09:58:24.201Z,15.90
2023-04-02T10:01:30.100Z,15.97
2023-04-02T10:04:37.480Z,16.07
2023-04-02T10:07:41.387Z,15.92
2023-04-02T10:10:46.486Z,15.74
2023-04-02T10:13:52.899Z,15.87
2023-04-02T10:16:59.677Z,15.70
2023-04-02T10:20:05.793Z,15.72
2023-04-02T10:23:15.527Z,15.83
2023-04-02T10:26:46.262Z,15.93
2023-04-02T10:30:09.970Z,16.01
2023-04-02T10:33:18.852Z,16.22
2023-04-02T10:36:28.732Z,16.01
2023-04-02T10:39:38.975Z,15.97
2023-04-02T10:42:51.388Z,15.80
2023-04-02T10:46:00.706Z,15.70
2023-04-02T10:49:16.784Z,15.60
2023-04-02T10:52:24.154Z,15.78
2023-04-02T10:55:30.350Z,16.04
2023-04-02T10:58:37.746Z,16.23
2023-04-02T11:01:42.872Z,16.43
2023-04-02T11:04:47.017Z,16.58
2023-04-02T11:07:57.281Z,16.79
2023-04-02T11:11:04.556Z,16.85
2023-04-02T11:14:12.818Z,16.68
2023-04-02T11:17:15.944Z,16.45
2023-04-02T11:20:57.335Z,16.24
2023-04-02T11:24:01.572Z,16.43
2023-04-02T11:27:15.757Z,16.41
2023-04-02T11:30:23.990Z,16.44
2023-04-02T11:33:42.246Z,16.51
2023-04-02T11:37:07.740Z,16.29
2023-04-02T11:40:48.395Z,16.11
2023-04-02T11:43:52.208Z,16.13
2023-04-02T11:47:18.011Z,16.19
2023-04-02T11:50:30.842Z,16.09
2023-04-02T11:53:34.693Z,15.92
2023-04-02T11:56:45.766Z,15.82
2023-04-02T12:00:00.240Z,16.15
2023-04-02T12:03:24.099Z,16.09
2023-04-02T12:06:34.405Z,15.97
2023-04-02T12:09:44.736Z,15.94
2023-04-02T12:12:49.122Z,15.92
2023-04-02T12:15:52.723Z,15.87
2023-04-02T12:18:54.868Z,15.63
2023-04-02T12:21:58.385Z,15.60
2023-04-02T12:25:04.030Z,15.53
2023-04-02T12:28:15.350Z,15.58
2023-04-02T12:31:17.294Z,15.77
2023-04-02T12:34:21.830Z,15.76
2023-04-02T12:37:26.184Z,15.91
2023-04-02T12:40:28.556Z,16.02
2023-04-02T12:43:33.406Z,16.28
2023-04-02T12:46:36.041Z,16.10
2023-04-02T12:49:40.152Z,16.01
2023-04-02T12:52:45.290Z,15.89
2023-04-02T12:55:48.518Z,15.84
2023-04-02T12:58:56.343Z,15.98
2023-04-02T13:01:59.958Z,16.06
2023-04-02T13:05:02.274Z,16.12
2023-04-02T13:08:04.860Z,15.80
2023-04-02T13:11:06.987Z,15.74
2023-04-02T13:14:19.378Z,15.48
2023-04-02T13:17:42.674Z,15.55
2023-04-02T13:20:55.653Z,15.48
2023-04-02T13:23:57.532Z,15.48
2023-04-02T13:27:00.754Z,15.33
2023-04-02T13:30:09.650Z,15.33
2023-04-02T13:33:11.325Z,15.37
2023-04-02T13:36:14.748Z,15.48
2023-04-02T13:39:18.349Z,15.49
2023-04-02T13:42:20.409Z,15.44
2023-04-02T13:45:26.617Z,15.13
2023-04-02T13:48:28.635Z,14.91
2023-04-02T13:51:36.438Z,14.78
2023-04-02T13:54:46.121Z,14.69
2023-04-02T13:57:49.142Z,14.58
2023-04-02T14:00:53.356Z,14.58
2023-04-02T14:03:56.184Z,14.62
2023-04-02T14:07:24.764Z,14.67
2023-04-02T14:10:39.740Z,14.71
2023-04-02T14:14:00.236Z,14.57
2023-04-02T14:17:16.008Z,14.46
2023-04-02T14:20:33.569Z,14.39
2023-04-02T14:23:48.451Z,14.31
2023-04-02T14:27:04.375Z,14.35
2023-04-02T14:30:15.264Z,14.31
2023-04-02T14:33:33.342Z,14.34
2023-04-02T14:36:45.688Z,14.27
2023-04-02T14:39:57.369Z,14.24
2023-04-02T14:43:04.091Z,14.36
2023-04-02T14:46:07.719Z,14.49
2023-04-02T14:49:24.142Z,14.49
2023-04-02T14:52:28.808Z,14.47
2023-04-02T14:55:36.280Z,14.40
2023-04-02T14:58:43.480Z,14.34
2023-04-02T15:01:49.471Z,14.23
2023-04-02T15:04:59.586Z,14.11
2023-04-02T15:08:07.120Z,13.97
2023-04-02T15:11:15.101Z,13.84
2023-04-02T15:14:20.471Z,13.68
2023-04-02T15:17:23.548Z,13.48
2023-04-02T15:20:37.124Z,13.02
2023-04-02T15:23:51.682Z,12.39
2023-04-02T15:27:01.425Z,12.00
2023-04-02T15:30:11.272Z,11.74
2023-04-02T15:33:38.702Z,11.50
2023-04-02T15:37:01.600Z,11.37
2023-04-02T15:40:20.209Z,11.19
2023-04-02T15:43:28.968Z,11.02
2023-04-02T15:46:43.249Z,10.96
2023-04-02T15:49:53.690Z,10.90
2023-04-02T15:53:00.959Z,10.81
2023-04-02T15:56:14.949Z,10.83
2023-04-02T15:59:48.920Z,10.75
2023-04-02T16:03:05.440Z,10.76
2023-04-02T16:06:28.683Z,10.79
2023-04-02T16:09:45.410Z,10.72
2023-04-02T16:12:49.948Z,10.75
2023-04-02T16:15:56.635Z,10.79
2023-04-02T16:19:03.531Z,10.79
2023-04-02T16:22:12.687Z,10.80
2023-04-02T16:25:20.149Z,10.73
2023-04-02T16:28:28.235Z,10.71
2023-04-02T16:31:41.395Z,10.63
2023-04-02T16:34:55.084Z,10.72
2023-04-02T16:38:11.864Z,10.57
2023-04-02T16:41:22.984Z,10.51
2023-04-02T16:44:32.443Z,10.50
2023-04-02T16:47:53.732Z,10.63
2023-04-02T16:51:07.543Z,10.50
2023-04-02T16:54:14.836Z,10.64
2023-04-02T16:57:30.450Z,10.90
2023-04-02T17:00:39.667Z,10.92
2023-04-02T17:04:01.098Z,10.62
2023-04-02T17:07:15.281Z,10.47
2023-04-02T17:10:29.312Z,10.45
2023-04-02T17:13:40.181Z,10.56
2023-04-02T17:16:44.975Z,10.59
2023-04-02T17:19:49.958Z,10.74
2023-04-02T17:22:53.804Z,10.77
2023-04-02T17:26:02.107Z,10.67
2023-04-02T17:29:10.121Z,10.82
2023-04-02T17:32:18.663Z,10.59
2023-04-02T17:35:30.081Z,10.54
2023-04-02T17:38:41.025Z,10.66
2023-04-02T17:41:48.439Z,10.66
2023-04-02T17:45:03.266Z,10.52
2023-04-02T17:48:15.726Z,10.48
2023-04-02T17:51:25.797Z,10.64
2023-04-02T17:54:40.507Z,10.76
2023-04-02T17:57:52.263Z,10.58
2023-04-02T18:01:07.069Z,10.55
2023-04-02T18:04:22.324Z,10.58
2023-04-02T18:07:39.652Z,10.52
2023-04-02T18:10:51.292Z,10.64
2023-04-02T18:13:59.871Z,10.73
2023-04-02T18:17:15.214Z,10.59
2023-04-02T18:20:29.106Z,10.75
2023-04-02T18:23:43.275Z,10.69
2023-04-02T18:26:53.348Z,10.65
2023-04-02T18:30:07.190Z,10.70
2023-04-02T18:33:26.698Z,10.82
2023-04-02T18:36:38.708Z,10.71
2023-04-02T18:39:55.290Z,10.54
2023-04-02T18:43:07.695Z,10.30
2023-04-02T18:46:21.707Z,10.15
2023-04-02T18:49:34.049Z,10.12
2023-04-02T18:52:38.311Z,10.15
2023-04-02T18:55:46.091Z,10.20
2023-04-02T18:58:56.994Z,10.09
2023-04-02T19:02:07.338Z,10.27
2023-04-02T19:05:24.380Z,10.29
2023-04-02T19:08:33.351Z,10.21
2023-04-02T19:11:36.133Z,10.28
2023-04-02T19:14:39.746Z,10.27
2023-04-02T19:17:47.356Z,10.37
2023-04-02T19:20:57.683Z,10.32
2023-04-02T19:24:17.233Z,10.37
2023-04-02T19:27:25.857Z,10.36
2023-04-02T19:30:41.866Z,10.31
2023-04-02T19:33:50.569Z,10.28
2023-04-02T19:37:00.709Z,10.27
2023-04-02T19:40:21.524Z,10.24
2023-04-02T19:43:24.360Z,10.26
2023-04-02T19:46:28.213Z,10.19
2023-04-02T19:49:35.483Z,10.12
2023-04-02T19:52:40.350Z,10.09
2023-04-02T19:55:43.802Z,9.95
2023-04-02T19:58:46.457Z,9.86
2023-04-02T20:01:51.346Z,9.79
2023-04-02T20:04:54.298Z,9.72
2023-04-02T20:07:58.307Z,9.60
2023-04-02T20:11:01.138Z,9.52
2023-04-02T20:14:04.511Z,9.48
2023-04-02T20:17:07.983Z,9.46
2023-04-02T20:20:12.221Z,9.36
2023-04-02T20:23:16.697Z,9.34
2023-04-02T20:26:19.022Z,9.39
2023-04-02T20:29:21.282Z,9.36
2023-04-02T20:32:24.772Z,9.35
2023-04-02T20:35:26.770Z,9.29
2023-04-02T20:38:32.182Z,9.33
2023-04-02T20:41:34.157Z,9.31
2023-04-02T20:44:35.971Z,9.22
2023-04-02T20:47:38.181Z,9.29
2023-04-02T20:50:40.205Z,9.10
2023-04-02T20:53:44.339Z,9.01
2023-04-02T20:56:46.498Z,8.94
2023-04-02T20:59:48.460Z,8.90
2023-04-02T21:02:50.300Z,8.93
2023-04-02T21:05:52.004Z,8.90
2023-04-02T21:08:55.126Z,8.77
2023-04-02T21:11:56.805Z,8.73
2023-04-02T21:15:00.231Z,8.61
2023-04-02T21:18:03.970Z,8.57
2023-04-02T21:21:07.432Z,8.51
2023-04-02T21:24:10.729Z,8.48
2023-04-02T21:27:12.396Z,8.42
2023-04-02T21:30:14.395Z,8.32
2023-04-02T21:33:16.098Z,8.38
2023-04-02T21:36:20.032Z,8.32
2023-04-02T21:39:24.065Z,8.27
2023-04-02T21:42:25.709Z,8.24
2023-04-02T21:45:28.082Z,8.22
2023-04-02T21:48:29.872Z,8.27
2023-04-02T21:51:33.642Z,8.24
2023-04-02T21:54:36.685Z,8.22
2023-04-02T21:57:38.465Z,8.20
2023-04-02T22:00:40.250Z,8.26
2023-04-02T22:03:42.282Z,8.29
2023-04-02T22:06:45.252Z,8.29
2023-04-02T22:09:48.559Z,8.20
2023-04-02T22:12:50.227Z,8.17
2023-04-02T22:15:51.915Z,8.13
2023-04-02T22:18:55.163Z,8.15
2023-04-02T22:21:57.353Z,8.22
2023-04-02T22:25:00.636Z,8.23
2023-04-02T22:28:02.344Z,8.25
2023-04-02T22:31:05.663Z,8.37
2023-04-02T22:34:07.631Z,8.36
2023-04-02T22:37:09.292Z,8.43
2023-04-02T22:40:12.839Z,8.27
2023-04-02T22:43:14.496Z,8.32
2023-04-02T22:46:18.011Z,8.11
2023-04-02T22:49:19.803Z,7.99
2023-04-02T22:52:21.512Z,7.95
2023-04-02T22:55:24.595Z,7.89
2023-04-02T22:58:26.283Z,7.85
2023-04-02T23:01:29.969Z,7.82
2023-04-02T23:04:31.721Z,7.75
2023-04-02T23:07:33.850Z,7.73
2023-04-02T23:10:37.347Z,7.81
2023-04-02T23:13:39.573Z,7.80
2023-04-02T23:16:41.247Z,7.79
2023-04-02T23:19:42.952Z,7.78
2023-04-02T23:22:44.625Z,7.76
2023-04-02T23:25:47.926Z,7.74
2023-04-02T23:28:50.515Z,7.73
2023-04-02T23:31:52.236Z,7.79
2023-04-02T23:34:53.950Z,7.70
2023-04-02T23:37:55.752Z,7.68
2023-04-02T23:40:58.886Z,7.80
2023-04-02T23:44:00.876Z,7.81
2023-04-02T23:47:02.599Z,7.70
2023-04-02T23:50:04.924Z,7.57
2023-04-02T23:53:06.641Z,7.52
2023-04-02T23:56:10.204Z,7.43
2023-04-02T23:59:11.912Z,7.42
